sensor_id;sensor_type;location;lat;lon;timestamp;P1;durP1;ratioP1;P2;durP2;ratioP2
65769;SDS011;52512;47.650;8.578;2023-04-28T00:00:25;1.77;;;1.60;;
65769;SDS011;52512;47.650;8.578;2023-04-28T00:02:51;4.67;;;2.10;;
65769;SDS011;52512;47.650;8.578;2023-04-28T00:05:17;1.70;;;1.60;;
65769;SDS011;52512;47.650;8.578;2023-04-28T00:07:43;4.10;;;2.20;;
65769;SDS011;52512;47.650;8.578;2023-04-28T00:10:09;7.10;;;2.50;;
65769;SDS011;52512;47.650;8.578;2023-04-28T00:12:35;11.43;;;2.20;;
65769;SDS011;52512;47.650;8.578;2023-04-28T00:15:01;4.93;;;2.90;;
65769;SDS011;52512;47.650;8.578;2023-04-28T00:17:27;2.55;;;2.35;;
65769;SDS011;52512;47.650;8.578;2023-04-28T00:19:53;2.47;;;2.27;;
65769;SDS011;52512;47.650;8.578;2023-04-28T00:22:18;4.40;;;2.23;;
65769;SDS011;52512;47.650;8.578;2023-04-28T00:24:44;2.67;;;1.97;;
65769;SDS011;52512;47.650;8.578;2023-04-28T00:27:10;2.70;;;2.27;;
65769;SDS011;52512;47.650;8.578;2023-04-28T00:29:36;3.07;;;1.93;;
65769;SDS011;52512;47.650;8.578;2023-04-28T00:32:01;2.40;;;2.20;;
65769;SDS011;52512;47.650;8.578;2023-04-28T00:34:27;1.83;;;1.60;;
65769;SDS011;52512;47.650;8.578;2023-04-28T00:36:57;3.03;;;1.95;;
65769;SDS011;52512;47.650;8.578;2023-04-28T00:39:23;2.50;;;2.30;;
65769;SDS011;52512;47.650;8.578;2023-04-28T00:41:49;2.17;;;1.98;;
65769;SDS011;52512;47.650;8.578;2023-04-28T00:44:15;1.93;;;1.60;;
65769;SDS011;52512;47.650;8.578;2023-04-28T00:46:41;2.00;;;1.90;;
65769;SDS011;52512;47.650;8.578;2023-04-28T00:49:07;2.00;;;1.70;;
65769;SDS011;52512;47.650;8.578;2023-04-28T00:51:33;6.88;;;1.50;;
65769;SDS011;52512;47.650;8.578;2023-04-28T00:53:58;3.40;;;2.20;;
65769;SDS011;52512;47.650;8.578;2023-04-28T00:56:24;2.47;;;2.27;;
65769;SDS011;52512;47.650;8.578;2023-04-28T00:58:54;2.00;;;1.90;;
65769;SDS011;52512;47.650;8.578;2023-04-28T01:01:21;1.50;;;1.40;;
65769;SDS011;52512;47.650;8.578;2023-04-28T01:03:46;2.60;;;2.20;;
65769;SDS011;52512;47.650;8.578;2023-04-28T01:06:12;7.40;;;2.37;;
65769;SDS011;52512;47.650;8.578;2023-04-28T01:08:38;2.65;;;1.90;;
65769;SDS011;52512;47.650;8.578;2023-04-28T01:11:06;5.63;;;2.13;;
65769;SDS011;52512;47.650;8.578;2023-04-28T01:13:34;3.50;;;1.95;;
65769;SDS011;52512;47.650;8.578;2023-04-28T01:16:00;1.97;;;1.87;;
65769;SDS011;52512;47.650;8.578;2023-04-28T01:18:25;6.23;;;2.40;;
65769;SDS011;52512;47.650;8.578;2023-04-28T01:20:51;3.37;;;2.20;;
65769;SDS011;52512;47.650;8.578;2023-04-28T01:23:17;4.03;;;2.30;;
65769;SDS011;52512;47.650;8.578;2023-04-28T01:25:43;3.00;;;2.10;;
65769;SDS011;52512;47.650;8.578;2023-04-28T01:28:09;1.97;;;1.87;;
65769;SDS011;52512;47.650;8.578;2023-04-28T01:30:35;2.95;;;2.70;;
65769;SDS011;52512;47.650;8.578;2023-04-28T01:33:01;3.83;;;2.07;;
65769;SDS011;52512;47.650;8.578;2023-04-28T01:35:27;5.38;;;1.95;;
65769;SDS011;52512;47.650;8.578;2023-04-28T01:37:53;2.67;;;1.70;;
65769;SDS011;52512;47.650;8.578;2023-04-28T01:40:19;2.33;;;2.10;;
65769;SDS011;52512;47.650;8.578;2023-04-28T01:42:45;4.40;;;2.07;;
65769;SDS011;52512;47.650;8.578;2023-04-28T01:45:11;2.27;;;2.13;;
65769;SDS011;52512;47.650;8.578;2023-04-28T01:47:36;4.10;;;2.13;;
65769;SDS011;52512;47.650;8.578;2023-04-28T01:50:02;5.33;;;2.03;;
65769;SDS011;52512;47.650;8.578;2023-04-28T01:52:28;3.80;;;2.30;;
65769;SDS011;52512;47.650;8.578;2023-04-28T01:54:53;2.43;;;2.23;;
65769;SDS011;52512;47.650;8.578;2023-04-28T01:57:19;4.50;;;1.90;;
65769;SDS011;52512;47.650;8.578;2023-04-28T01:59:45;2.30;;;2.20;;
65769;SDS011;52512;47.650;8.578;2023-04-28T02:02:11;6.53;;;2.50;;
65769;SDS011;52512;47.650;8.578;2023-04-28T02:04:37;3.37;;;2.13;;
65769;SDS011;52512;47.650;8.578;2023-04-28T02:07:03;2.10;;;1.90;;
65769;SDS011;52512;47.650;8.578;2023-04-28T02:09:29;3.13;;;2.80;;
65769;SDS011;52512;47.650;8.578;2023-04-28T02:11:54;2.50;;;1.70;;
65769;SDS011;52512;47.650;8.578;2023-04-28T02:14:20;2.07;;;1.93;;
65769;SDS011;52512;47.650;8.578;2023-04-28T02:16:45;9.13;;;2.40;;
65769;SDS011;52512;47.650;8.578;2023-04-28T02:19:11;5.77;;;2.60;;
65769;SDS011;52512;47.650;8.578;2023-04-28T02:21:37;2.17;;;2.03;;
65769;SDS011;52512;47.650;8.578;2023-04-28T02:24:02;6.63;;;3.07;;
65769;SDS011;52512;47.650;8.578;2023-04-28T02:26:28;2.83;;;2.30;;
65769;SDS011;52512;47.650;8.578;2023-04-28T02:28:54;2.57;;;2.30;;
65769;SDS011;52512;47.650;8.578;2023-04-28T02:31:20;7.03;;;2.53;;
65769;SDS011;52512;47.650;8.578;2023-04-28T02:33:46;2.33;;;2.13;;
65769;SDS011;52512;47.650;8.578;2023-04-28T02:36:12;2.47;;;2.27;;
65769;SDS011;52512;47.650;8.578;2023-04-28T02:38:37;5.57;;;3.53;;
65769;SDS011;52512;47.650;8.578;2023-04-28T02:41:05;1.85;;;1.75;;
65769;SDS011;52512;47.650;8.578;2023-04-28T02:43:33;3.97;;;3.00;;
65769;SDS011;52512;47.650;8.578;2023-04-28T02:46:03;2.22;;;2.00;;
65769;SDS011;52512;47.650;8.578;2023-04-28T02:48:29;3.15;;;1.67;;
65769;SDS011;52512;47.650;8.578;2023-04-28T02:50:55;2.37;;;2.00;;
65769;SDS011;52512;47.650;8.578;2023-04-28T02:53:21;2.40;;;2.17;;
65769;SDS011;52512;47.650;8.578;2023-04-28T02:55:47;3.60;;;2.42;;
65769;SDS011;52512;47.650;8.578;2023-04-28T02:58:13;3.10;;;2.70;;
65769;SDS011;52512;47.650;8.578;2023-04-28T03:00:39;3.10;;;2.80;;
65769;SDS011;52512;47.650;8.578;2023-04-28T03:03:05;3.80;;;3.40;;
65769;SDS011;52512;47.650;8.578;2023-04-28T03:05:31;1.77;;;1.67;;
65769;SDS011;52512;47.650;8.578;2023-04-28T03:07:56;2.37;;;2.20;;
65769;SDS011;52512;47.650;8.578;2023-04-28T03:10:22;9.77;;;2.97;;
65769;SDS011;52512;47.650;8.578;2023-04-28T03:12:48;3.33;;;1.97;;
65769;SDS011;52512;47.650;8.578;2023-04-28T03:15:14;6.03;;;2.40;;
65769;SDS011;52512;47.650;8.578;2023-04-28T03:17:39;3.07;;;2.87;;
65769;SDS011;52512;47.650;8.578;2023-04-28T03:20:07;5.25;;;2.55;;
65769;SDS011;52512;47.650;8.578;2023-04-28T03:22:33;2.72;;;2.53;;
65769;SDS011;52512;47.650;8.578;2023-04-28T03:24:59;5.60;;;2.55;;
65769;SDS011;52512;47.650;8.578;2023-04-28T03:27:26;3.97;;;2.70;;
65769;SDS011;52512;47.650;8.578;2023-04-28T03:29:52;4.65;;;2.90;;
65769;SDS011;52512;47.650;8.578;2023-04-28T03:32:18;3.10;;;2.37;;
65769;SDS011;52512;47.650;8.578;2023-04-28T03:34:43;3.33;;;2.40;;
65769;SDS011;52512;47.650;8.578;2023-04-28T03:37:09;2.77;;;2.57;;
65769;SDS011;52512;47.650;8.578;2023-04-28T03:39:34;5.10;;;2.60;;
65769;SDS011;52512;47.650;8.578;2023-04-28T03:42:00;5.33;;;3.10;;
65769;SDS011;52512;47.650;8.578;2023-04-28T03:44:26;2.13;;;1.92;;
65769;SDS011;52512;47.650;8.578;2023-04-28T03:46:52;8.17;;;5.00;;
65769;SDS011;52512;47.650;8.578;2023-04-28T03:49:18;11.13;;;5.70;;
65769;SDS011;52512;47.650;8.578;2023-04-28T03:51:43;8.33;;;4.30;;
65769;SDS011;52512;47.650;8.578;2023-04-28T03:54:09;4.87;;;3.57;;
65769;SDS011;52512;47.650;8.578;2023-04-28T03:56:34;4.00;;;3.07;;
65769;SDS011;52512;47.650;8.578;2023-04-28T03:59:00;3.93;;;3.30;;
65769;SDS011;52512;47.650;8.578;2023-04-28T04:01:26;6.37;;;3.23;;
65769;SDS011;52512;47.650;8.578;2023-04-28T04:03:52;5.50;;;2.77;;
65769;SDS011;52512;47.650;8.578;2023-04-28T04:06:17;8.23;;;3.70;;
65769;SDS011;52512;47.650;8.578;2023-04-28T04:08:43;6.40;;;3.30;;
65769;SDS011;52512;47.650;8.578;2023-04-28T04:11:09;4.30;;;3.38;;
65769;SDS011;52512;47.650;8.578;2023-04-28T04:13:35;2.50;;;2.30;;
65769;SDS011;52512;47.650;8.578;2023-04-28T04:16:01;11.93;;;4.43;;
65769;SDS011;52512;47.650;8.578;2023-04-28T04:18:26;7.53;;;3.20;;
65769;SDS011;52512;47.650;8.578;2023-04-28T04:20:52;4.13;;;3.47;;
65769;SDS011;52512;47.650;8.578;2023-04-28T04:23:20;6.68;;;3.47;;
65769;SDS011;52512;47.650;8.578;2023-04-28T04:25:46;3.72;;;2.88;;
65769;SDS011;52512;47.650;8.578;2023-04-28T04:28:11;10.43;;;3.70;;
65769;SDS011;52512;47.650;8.578;2023-04-28T04:30:37;4.97;;;3.10;;
65769;SDS011;52512;47.650;8.578;2023-04-28T04:33:03;5.43;;;3.23;;
65769;SDS011;52512;47.650;8.578;2023-04-28T04:35:29;5.20;;;3.30;;
65769;SDS011;52512;47.650;8.578;2023-04-28T04:37:55;6.47;;;3.58;;
65769;SDS011;52512;47.650;8.578;2023-04-28T04:40:21;2.97;;;2.57;;
65769;SDS011;52512;47.650;8.578;2023-04-28T04:42:46;9.53;;;3.87;;
65769;SDS011;52512;47.650;8.578;2023-04-28T04:45:12;5.60;;;4.30;;
65769;SDS011;52512;47.650;8.578;2023-04-28T04:47:38;7.10;;;3.60;;
65769;SDS011;52512;47.650;8.578;2023-04-28T04:50:04;8.88;;;3.90;;
65769;SDS011;52512;47.650;8.578;2023-04-28T04:52:31;3.78;;;3.33;;
65769;SDS011;52512;47.650;8.578;2023-04-28T04:54:57;8.27;;;3.47;;
65769;SDS011;52512;47.650;8.578;2023-04-28T04:57:23;8.63;;;3.63;;
65769;SDS011;52512;47.650;8.578;2023-04-28T04:59:48;6.43;;;3.80;;
65769;SDS011;52512;47.650;8.578;2023-04-28T05:02:14;5.90;;;3.57;;
65769;SDS011;52512;47.650;8.578;2023-04-28T05:04:40;5.90;;;3.97;;
65769;SDS011;52512;47.650;8.578;2023-04-28T05:07:05;22.63;;;4.40;;
65769;SDS011;52512;47.650;8.578;2023-04-28T05:09:31;5.17;;;3.77;;
65769;SDS011;52512;47.650;8.578;2023-04-28T05:11:57;7.10;;;3.30;;
65769;SDS011;52512;47.650;8.578;2023-04-28T05:14:23;4.83;;;3.53;;
65769;SDS011;52512;47.650;8.578;2023-04-28T05:16:49;7.13;;;4.70;;
65769;SDS011;52512;47.650;8.578;2023-04-28T05:19:14;7.10;;;3.60;;
65769;SDS011;52512;47.650;8.578;2023-04-28T05:21:40;6.37;;;3.97;;
65769;SDS011;52512;47.650;8.578;2023-04-28T05:24:06;8.63;;;4.07;;
65769;SDS011;52512;47.650;8.578;2023-04-28T05:26:32;7.77;;;5.07;;
65769;SDS011;52512;47.650;8.578;2023-04-28T05:28:57;8.23;;;4.00;;
65769;SDS011;52512;47.650;8.578;2023-04-28T05:31:23;10.17;;;3.73;;
65769;SDS011;52512;47.650;8.578;2023-04-28T05:33:48;6.27;;;4.70;;
65769;SDS011;52512;47.650;8.578;2023-04-28T05:36:14;8.90;;;5.53;;
65769;SDS011;52512;47.650;8.578;2023-04-28T05:38:42;7.68;;;4.50;;
65769;SDS011;52512;47.650;8.578;2023-04-28T05:41:08;4.20;;;3.80;;
65769;SDS011;52512;47.650;8.578;2023-04-28T05:43:34;6.23;;;4.07;;
65769;SDS011;52512;47.650;8.578;2023-04-28T05:46:00;7.60;;;4.33;;
65769;SDS011;52512;47.650;8.578;2023-04-28T05:48:25;7.60;;;4.67;;
65769;SDS011;52512;47.650;8.578;2023-04-28T05:50:51;6.60;;;4.30;;
65769;SDS011;52512;47.650;8.578;2023-04-28T05:53:17;6.77;;;4.00;;
65769;SDS011;52512;47.650;8.578;2023-04-28T05:55:43;7.70;;;5.23;;
65769;SDS011;52512;47.650;8.578;2023-04-28T05:58:08;10.30;;;3.87;;
65769;SDS011;52512;47.650;8.578;2023-04-28T06:00:34;6.43;;;3.53;;
65769;SDS011;52512;47.650;8.578;2023-04-28T06:03:00;5.93;;;3.53;;
65769;SDS011;52512;47.650;8.578;2023-04-28T06:05:25;4.73;;;3.63;;
65769;SDS011;52512;47.650;8.578;2023-04-28T06:07:52;3.13;;;2.85;;
65769;SDS011;52512;47.650;8.578;2023-04-28T06:10:20;5.25;;;3.40;;
65769;SDS011;52512;47.650;8.578;2023-04-28T06:12:46;7.97;;;3.80;;
65769;SDS011;52512;47.650;8.578;2023-04-28T06:15:12;5.20;;;3.30;;
65769;SDS011;52512;47.650;8.578;2023-04-28T06:17:38;3.57;;;3.30;;
65769;SDS011;52512;47.650;8.578;2023-04-28T06:20:04;8.43;;;4.60;;
65769;SDS011;52512;47.650;8.578;2023-04-28T06:22:31;4.20;;;3.83;;
65769;SDS011;52512;47.650;8.578;2023-04-28T06:24:57;3.67;;;3.10;;
65769;SDS011;52512;47.650;8.578;2023-04-28T06:27:23;3.10;;;2.73;;
65769;SDS011;52512;47.650;8.578;2023-04-28T06:29:48;3.10;;;2.80;;
65769;SDS011;52512;47.650;8.578;2023-04-28T06:32:15;6.57;;;3.85;;
65769;SDS011;52512;47.650;8.578;2023-04-28T06:34:40;3.77;;;3.20;;
65769;SDS011;52512;47.650;8.578;2023-04-28T06:37:06;5.70;;;4.40;;
65769;SDS011;52512;47.650;8.578;2023-04-28T06:39:32;4.40;;;3.97;;
65769;SDS011;52512;47.650;8.578;2023-04-28T06:41:57;6.90;;;3.47;;
65769;SDS011;52512;47.650;8.578;2023-04-28T06:44:24;27.00;;;3.42;;
65769;SDS011;52512;47.650;8.578;2023-04-28T06:46:49;3.30;;;3.00;;
65769;SDS011;52512;47.650;8.578;2023-04-28T06:49:15;5.50;;;2.83;;
65769;SDS011;52512;47.650;8.578;2023-04-28T06:51:42;4.07;;;2.17;;
65769;SDS011;52512;47.650;8.578;2023-04-28T06:54:09;6.50;;;2.40;;
65769;SDS011;52512;47.650;8.578;2023-04-28T06:56:35;2.70;;;2.40;;
65769;SDS011;52512;47.650;8.578;2023-04-28T06:59:01;3.93;;;2.70;;
65769;SDS011;52512;47.650;8.578;2023-04-28T07:01:27;3.63;;;2.30;;
65769;SDS011;52512;47.650;8.578;2023-04-28T07:03:52;3.17;;;2.87;;
65769;SDS011;52512;47.650;8.578;2023-04-28T07:06:18;3.00;;;2.37;;
65769;SDS011;52512;47.650;8.578;2023-04-28T07:08:44;1.90;;;1.80;;
65769;SDS011;52512;47.650;8.578;2023-04-28T07:11:10;5.90;;;2.90;;
65769;SDS011;52512;47.650;8.578;2023-04-28T07:13:36;2.40;;;2.00;;
65769;SDS011;52512;47.650;8.578;2023-04-28T07:16:02;2.30;;;2.17;;
65769;SDS011;52512;47.650;8.578;2023-04-28T07:18:28;3.65;;;2.88;;
65769;SDS011;52512;47.650;8.578;2023-04-28T07:20:54;2.80;;;2.40;;
65769;SDS011;52512;47.650;8.578;2023-04-28T07:23:19;2.77;;;2.57;;
65769;SDS011;52512;47.650;8.578;2023-04-28T07:25:45;5.67;;;2.40;;
65769;SDS011;52512;47.650;8.578;2023-04-28T07:28:12;2.70;;;2.50;;
65769;SDS011;52512;47.650;8.578;2023-04-28T07:30:38;3.30;;;2.53;;
65769;SDS011;52512;47.650;8.578;2023-04-28T07:33:04;3.30;;;2.80;;
65769;SDS011;52512;47.650;8.578;2023-04-28T07:35:29;10.00;;;3.03;;
65769;SDS011;52512;47.650;8.578;2023-04-28T07:37:55;3.23;;;2.30;;
65769;SDS011;52512;47.650;8.578;2023-04-28T07:40:22;5.78;;;3.30;;
65769;SDS011;52512;47.650;8.578;2023-04-28T07:42:48;3.77;;;2.57;;
65769;SDS011;52512;47.650;8.578;2023-04-28T07:45:13;4.87;;;3.67;;
65769;SDS011;52512;47.650;8.578;2023-04-28T07:47:42;6.50;;;3.65;;
65769;SDS011;52512;47.650;8.578;2023-04-28T07:50:09;5.33;;;3.87;;
65769;SDS011;52512;47.650;8.578;2023-04-28T07:52:35;2.72;;;2.53;;
65769;SDS011;52512;47.650;8.578;2023-04-28T07:55:01;5.93;;;3.40;;
65769;SDS011;52512;47.650;8.578;2023-04-28T07:57:28;13.85;;;3.85;;
65769;SDS011;52512;47.650;8.578;2023-04-28T07:59:54;4.13;;;3.15;;
65769;SDS011;52512;47.650;8.578;2023-04-28T08:02:20;5.33;;;3.20;;
65769;SDS011;52512;47.650;8.578;2023-04-28T08:04:46;11.10;;;3.60;;
65769;SDS011;52512;47.650;8.578;2023-04-28T08:07:12;4.30;;;2.70;;
65769;SDS011;52512;47.650;8.578;2023-04-28T08:09:37;5.97;;;3.70;;
65769;SDS011;52512;47.650;8.578;2023-04-28T08:12:05;3.55;;;3.25;;
65769;SDS011;52512;47.650;8.578;2023-04-28T08:14:31;8.57;;;3.47;;
65769;SDS011;52512;47.650;8.578;2023-04-28T08:16:57;12.10;;;3.90;;
65769;SDS011;52512;47.650;8.578;2023-04-28T08:19:23;5.70;;;3.70;;
65769;SDS011;52512;47.650;8.578;2023-04-28T08:21:48;2.83;;;2.63;;
65769;SDS011;52512;47.650;8.578;2023-04-28T08:24:14;3.90;;;2.97;;
65769;SDS011;52512;47.650;8.578;2023-04-28T08:26:40;9.33;;;3.60;;
65769;SDS011;52512;47.650;8.578;2023-04-28T08:29:05;3.43;;;2.80;;
65769;SDS011;52512;47.650;8.578;2023-04-28T08:31:31;3.60;;;3.20;;
65769;SDS011;52512;47.650;8.578;2023-04-28T08:33:57;4.67;;;3.20;;
65769;SDS011;52512;47.650;8.578;2023-04-28T08:36:23;4.10;;;3.33;;
65769;SDS011;52512;47.650;8.578;2023-04-28T08:38:50;6.80;;;4.00;;
65769;SDS011;52512;47.650;8.578;2023-04-28T08:41:16;5.72;;;4.00;;
65769;SDS011;52512;47.650;8.578;2023-04-28T08:43:43;4.93;;;3.10;;
65769;SDS011;52512;47.650;8.578;2023-04-28T08:46:09;4.90;;;3.85;;
65769;SDS011;52512;47.650;8.578;2023-04-28T08:48:39;3.87;;;2.90;;
65769;SDS011;52512;47.650;8.578;2023-04-28T08:51:07;3.85;;;2.95;;
65769;SDS011;52512;47.650;8.578;2023-04-28T08:53:35;5.97;;;3.13;;
65769;SDS011;52512;47.650;8.578;2023-04-28T08:56:04;4.75;;;3.45;;
65769;SDS011;52512;47.650;8.578;2023-04-28T08:58:32;5.43;;;3.40;;
65769;SDS011;52512;47.650;8.578;2023-04-28T09:01:00;8.32;;;3.42;;
65769;SDS011;52512;47.650;8.578;2023-04-28T09:03:28;14.38;;;4.15;;
65769;SDS011;52512;47.650;8.578;2023-04-28T09:05:55;4.10;;;3.08;;
65769;SDS011;52512;47.650;8.578;2023-04-28T09:08:21;4.45;;;3.13;;
65769;SDS011;52512;47.650;8.578;2023-04-28T09:10:47;6.40;;;3.93;;
65769;SDS011;52512;47.650;8.578;2023-04-28T09:13:24;3.63;;;3.20;;
65769;SDS011;52512;47.650;8.578;2023-04-28T09:15:50;5.47;;;3.40;;
65769;SDS011;52512;47.650;8.578;2023-04-28T09:18:23;5.50;;;3.10;;
65769;SDS011;52512;47.650;8.578;2023-04-28T09:20:49;7.37;;;3.13;;
65769;SDS011;52512;47.650;8.578;2023-04-28T09:25:55;3.50;;;3.20;;
65769;SDS011;52512;47.650;8.578;2023-04-28T09:28:28;2.90;;;2.63;;
65769;SDS011;52512;47.650;8.578;2023-04-28T09:30:55;5.43;;;3.03;;
65769;SDS011;52512;47.650;8.578;2023-04-28T09:33:21;5.43;;;2.72;;
65769;SDS011;52512;47.650;8.578;2023-04-28T09:35:47;8.73;;;3.53;;
65769;SDS011;52512;47.650;8.578;2023-04-28T09:38:13;3.43;;;3.20;;
65769;SDS011;52512;47.650;8.578;2023-04-28T09:43:27;4.88;;;3.33;;
65769;SDS011;52512;47.650;8.578;2023-04-28T09:45:58;8.95;;;3.17;;
65769;SDS011;52512;47.650;8.578;2023-04-28T09:48:31;4.05;;;3.10;;
65769;SDS011;52512;47.650;8.578;2023-04-28T09:51:04;5.05;;;3.05;;
65769;SDS011;52512;47.650;8.578;2023-04-28T09:53:32;8.88;;;4.68;;
65769;SDS011;52512;47.650;8.578;2023-04-28T09:55:59;6.80;;;3.95;;
65769;SDS011;52512;47.650;8.578;2023-04-28T09:58:27;3.95;;;3.55;;
65769;SDS011;52512;47.650;8.578;2023-04-28T10:00:56;5.25;;;3.60;;
65769;SDS011;52512;47.650;8.578;2023-04-28T10:03:26;5.32;;;4.30;;
65769;SDS011;52512;47.650;8.578;2023-04-28T10:05:53;4.30;;;3.40;;
65769;SDS011;52512;47.650;8.578;2023-04-28T10:08:19;4.63;;;3.15;;
65769;SDS011;52512;47.650;8.578;2023-04-28T10:10:49;4.72;;;3.60;;
65769;SDS011;52512;47.650;8.578;2023-04-28T10:13:18;4.22;;;3.20;;
65769;SDS011;52512;47.650;8.578;2023-04-28T10:15:48;3.75;;;3.40;;
65769;SDS011;52512;47.650;8.578;2023-04-28T10:18:15;5.60;;;3.08;;
65769;SDS011;52512;47.650;8.578;2023-04-28T10:20:42;3.63;;;2.55;;
65769;SDS011;52512;47.650;8.578;2023-04-28T10:23:16;4.38;;;3.60;;
65769;SDS011;52512;47.650;8.578;2023-04-28T10:26:03;4.22;;;3.80;;
65769;SDS011;52512;47.650;8.578;2023-04-28T10:28:35;5.88;;;4.00;;
65769;SDS011;52512;47.650;8.578;2023-04-28T10:31:08;4.25;;;3.60;;
65769;SDS011;52512;47.650;8.578;2023-04-28T10:33:35;5.07;;;3.97;;
65769;SDS011;52512;47.650;8.578;2023-04-28T10:36:01;12.65;;;4.03;;
65769;SDS011;52512;47.650;8.578;2023-04-28T10:38:28;6.80;;;4.00;;
65769;SDS011;52512;47.650;8.578;2023-04-28T10:40:54;8.43;;;4.80;;
65769;SDS011;52512;47.650;8.578;2023-04-28T10:48:19;5.67;;;4.40;;
65769;SDS011;52512;47.650;8.578;2023-04-28T10:58:40;4.65;;;3.70;;
65769;SDS011;52512;47.650;8.578;2023-04-28T11:06:18;6.20;;;4.17;;
65769;SDS011;52512;47.650;8.578;2023-04-28T11:08:59;4.90;;;3.65;;
65769;SDS011;52512;47.650;8.578;2023-04-28T11:11:32;8.27;;;3.90;;
65769;SDS011;52512;47.650;8.578;2023-04-28T11:16:52;7.70;;;4.60;;
65769;SDS011;52512;47.650;8.578;2023-04-28T11:19:19;10.50;;;4.20;;
65769;SDS011;52512;47.650;8.578;2023-04-28T11:21:50;6.85;;;4.60;;
65769;SDS011;52512;47.650;8.578;2023-04-28T11:24:18;4.10;;;3.70;;
65769;SDS011;52512;47.650;8.578;2023-04-28T11:26:44;5.70;;;3.85;;
65769;SDS011;52512;47.650;8.578;2023-04-28T11:29:10;4.30;;;3.70;;
65769;SDS011;52512;47.650;8.578;2023-04-28T11:31:36;5.10;;;4.28;;
65769;SDS011;52512;47.650;8.578;2023-04-28T11:38:59;6.37;;;4.53;;
65769;SDS011;52512;47.650;8.578;2023-04-28T11:41:31;5.82;;;4.03;;
65769;SDS011;52512;47.650;8.578;2023-04-28T11:43:58;13.35;;;5.10;;
65769;SDS011;52512;47.650;8.578;2023-04-28T11:46:24;5.78;;;4.47;;
65769;SDS011;52512;47.650;8.578;2023-04-28T11:49:09;9.05;;;6.20;;
65769;SDS011;52512;47.650;8.578;2023-04-28T11:51:37;6.13;;;5.30;;
65769;SDS011;52512;47.650;8.578;2023-04-28T11:54:04;6.93;;;5.18;;
65769;SDS011;52512;47.650;8.578;2023-04-28T11:56:39;20.23;;;9.68;;
65769;SDS011;52512;47.650;8.578;2023-04-28T11:59:07;8.35;;;6.20;;
65769;SDS011;52512;47.650;8.578;2023-04-28T12:01:42;7.95;;;6.13;;
65769;SDS011;52512;47.650;8.578;2023-04-28T12:04:25;11.02;;;6.35;;
65769;SDS011;52512;47.650;8.578;2023-04-28T12:06:59;6.83;;;5.07;;
65769;SDS011;52512;47.650;8.578;2023-04-28T12:09:26;7.80;;;5.85;;
65769;SDS011;52512;47.650;8.578;2023-04-28T12:12:11;21.23;;;11.13;;
65769;SDS011;52512;47.650;8.578;2023-04-28T12:17:27;7.28;;;5.15;;
65769;SDS011;52512;47.650;8.578;2023-04-28T12:19:54;10.45;;;6.20;;
65769;SDS011;52512;47.650;8.578;2023-04-28T12:22:21;7.10;;;5.10;;
65769;SDS011;52512;47.650;8.578;2023-04-28T12:25:09;10.23;;;5.75;;
65769;SDS011;52512;47.650;8.578;2023-04-28T12:27:35;38.97;;;16.63;;
65769;SDS011;52512;47.650;8.578;2023-04-28T12:32:46;7.67;;;5.30;;
65769;SDS011;52512;47.650;8.578;2023-04-28T12:35:12;10.70;;;5.77;;
65769;SDS011;52512;47.650;8.578;2023-04-28T12:37:38;22.87;;;5.70;;
65769;SDS011;52512;47.650;8.578;2023-04-28T12:40:05;13.70;;;5.83;;
65769;SDS011;52512;47.650;8.578;2023-04-28T12:42:32;12.63;;;5.80;;
65769;SDS011;52512;47.650;8.578;2023-04-28T12:44:58;4.70;;;4.30;;
65769;SDS011;52512;47.650;8.578;2023-04-28T12:47:24;12.63;;;5.27;;
65769;SDS011;52512;47.650;8.578;2023-04-28T12:49:50;10.67;;;5.50;;
65769;SDS011;52512;47.650;8.578;2023-04-28T12:52:17;6.87;;;5.90;;
65769;SDS011;52512;47.650;8.578;2023-04-28T12:54:44;6.33;;;5.17;;
65769;SDS011;52512;47.650;8.578;2023-04-28T12:57:15;8.20;;;5.20;;
65769;SDS011;52512;47.650;8.578;2023-04-28T12:59:42;8.53;;;5.10;;
65769;SDS011;52512;47.650;8.578;2023-04-28T13:02:09;5.70;;;4.60;;
65769;SDS011;52512;47.650;8.578;2023-04-28T13:04:35;12.13;;;5.93;;
65769;SDS011;52512;47.650;8.578;2023-04-28T13:07:01;7.07;;;5.40;;
65769;SDS011;52512;47.650;8.578;2023-04-28T13:09:27;11.20;;;5.67;;
65769;SDS011;52512;47.650;8.578;2023-04-28T13:11:54;7.50;;;5.00;;
65769;SDS011;52512;47.650;8.578;2023-04-28T13:14:20;7.90;;;4.83;;
65769;SDS011;52512;47.650;8.578;2023-04-28T13:16:46;8.20;;;4.60;;
65769;SDS011;52512;47.650;8.578;2023-04-28T13:19:12;9.90;;;5.70;;
65769;SDS011;52512;47.650;8.578;2023-04-28T13:21:41;8.17;;;5.43;;
65769;SDS011;52512;47.650;8.578;2023-04-28T13:24:08;7.33;;;5.10;;
65769;SDS011;52512;47.650;8.578;2023-04-28T13:26:34;16.73;;;5.47;;
65769;SDS011;52512;47.650;8.578;2023-04-28T13:29:02;6.70;;;4.87;;
65769;SDS011;52512;47.650;8.578;2023-04-28T13:31:28;8.40;;;5.20;;
65769;SDS011;52512;47.650;8.578;2023-04-28T13:33:55;8.97;;;5.67;;
65769;SDS011;52512;47.650;8.578;2023-04-28T13:36:21;7.83;;;5.33;;
65769;SDS011;52512;47.650;8.578;2023-04-28T13:38:47;4.80;;;3.90;;
65769;SDS011;52512;47.650;8.578;2023-04-28T13:41:16;8.57;;;4.90;;
65769;SDS011;52512;47.650;8.578;2023-04-28T13:43:42;5.13;;;4.17;;
65769;SDS011;52512;47.650;8.578;2023-04-28T13:46:08;28.43;;;5.47;;
65769;SDS011;52512;47.650;8.578;2023-04-28T13:48:35;9.80;;;4.33;;
65769;SDS011;52512;47.650;8.578;2023-04-28T13:51:01;5.43;;;4.23;;
65769;SDS011;52512;47.650;8.578;2023-04-28T13:53:28;6.40;;;4.47;;
65769;SDS011;52512;47.650;8.578;2023-04-28T13:55:54;7.47;;;3.93;;
65769;SDS011;52512;47.650;8.578;2023-04-28T13:58:25;5.30;;;4.60;;
65769;SDS011;52512;47.650;8.578;2023-04-28T14:00:54;19.50;;;4.87;;
65769;SDS011;52512;47.650;8.578;2023-04-28T14:03:23;5.27;;;3.30;;
65769;SDS011;52512;47.650;8.578;2023-04-28T14:05:50;5.57;;;3.67;;
65769;SDS011;52512;47.650;8.578;2023-04-28T14:08:17;4.13;;;3.83;;
65769;SDS011;52512;47.650;8.578;2023-04-28T14:10:43;5.97;;;3.60;;
65769;SDS011;52512;47.650;8.578;2023-04-28T14:13:09;6.60;;;3.80;;
65769;SDS011;52512;47.650;8.578;2023-04-28T14:15:35;9.83;;;3.20;;
65769;SDS011;52512;47.650;8.578;2023-04-28T14:18:01;9.07;;;3.80;;
65769;SDS011;52512;47.650;8.578;2023-04-28T14:20:27;9.33;;;4.13;;
65769;SDS011;52512;47.650;8.578;2023-04-28T14:22:53;4.60;;;3.80;;
65769;SDS011;52512;47.650;8.578;2023-04-28T14:25:19;7.13;;;5.17;;
65769;SDS011;52512;47.650;8.578;2023-04-28T14:27:47;8.60;;;3.70;;
65769;SDS011;52512;47.650;8.578;2023-04-28T14:30:13;4.00;;;3.70;;
65769;SDS011;52512;47.650;8.578;2023-04-28T14:32:39;3.83;;;3.50;;
65769;SDS011;52512;47.650;8.578;2023-04-28T14:35:05;5.13;;;4.00;;
65769;SDS011;52512;47.650;8.578;2023-04-28T14:37:32;8.90;;;4.40;;
65769;SDS011;52512;47.650;8.578;2023-04-28T14:39:59;4.97;;;3.80;;
65769;SDS011;52512;47.650;8.578;2023-04-28T14:42:29;7.63;;;4.87;;
65769;SDS011;52512;47.650;8.578;2023-04-28T14:44:57;10.47;;;4.63;;
65769;SDS011;52512;47.650;8.578;2023-04-28T14:47:23;10.00;;;4.43;;
65769;SDS011;52512;47.650;8.578;2023-04-28T14:49:50;8.43;;;3.87;;
65769;SDS011;52512;47.650;8.578;2023-04-28T14:52:19;6.73;;;4.40;;
65769;SDS011;52512;47.650;8.578;2023-04-28T14:54:47;3.80;;;3.50;;
65769;SDS011;52512;47.650;8.578;2023-04-28T14:57:13;4.13;;;2.60;;
65769;SDS011;52512;47.650;8.578;2023-04-28T14:59:39;3.50;;;3.23;;
65769;SDS011;52512;47.650;8.578;2023-04-28T15:02:06;14.50;;;4.90;;
65769;SDS011;52512;47.650;8.578;2023-04-28T15:04:32;5.20;;;3.57;;
65769;SDS011;52512;47.650;8.578;2023-04-28T15:06:58;6.93;;;3.40;;
65769;SDS011;52512;47.650;8.578;2023-04-28T15:09:25;8.23;;;4.10;;
65769;SDS011;52512;47.650;8.578;2023-04-28T15:11:51;3.80;;;3.10;;
65769;SDS011;52512;47.650;8.578;2023-04-28T15:14:16;6.23;;;3.60;;
65769;SDS011;52512;47.650;8.578;2023-04-28T15:16:43;4.80;;;2.70;;
65769;SDS011;52512;47.650;8.578;2023-04-28T15:19:09;10.63;;;3.53;;